Aeroporto :
LOGIN :

Iscrizione | Disclaimer

   EN    FR    IT 

 










Sommario :    VFR   VFR Marginale   IFR   IFR Intensivo   IFR Molto Intensivo
Visibilità : 
Base nubi : 
>= 8 km
>= 3000ft
5 / 8 km
1000 / 3000 ft
1500m / 5 km
500 / 1000 ft
800 / 1500m
200 / 500 ft
< 800m
< 200 ft
Simboli :   Temporali  Nebbia  Neve Forte  Precipitazioni Forti  Vento > 20 kt
SIGMETs :   Varie  Temporali  Ghiacco  Turbolenza  Onda orograficha  Ceneri Vulcaniche






- Altitudine del aeroporto : 2595 ft
- Codice IATA : SLM


LESA - Salamanca Matacan

ULTIMO METAR :
  • 302000Z AUTO 09015G26KT 9999 SCT042 BKN048 03/M06 Q1012

METARs OBSOLETI :
  • 301930Z AUTO 09014KT 9999 BKN048 03/M06 Q1011
  • 301900Z AUTO 10015KT 9999 FEW041 03/M05 Q1011
  • 301830Z AUTO 10016KT CAVOK 03/M06 Q1011
  • 301800Z AUTO 07017KT 050V110 9999 SCT040 OVC047 03/M05 Q1011
  • 301730Z AUTO 09014KT 060V120 9999 FEW036 BKN043 04/M05 Q1011

TAF TAF LESA
Valido dal 30 a 18 ore il 31 a 18 ore UTC


301700Z 3018/3118 06015KT 9999 SCT020 BKN030 TX08/3114Z TNM02/3106Z
TEMPO 3018/3106 05020G30KT
PROB40
TEMPO 3023/3114 1500 SN OVC004
TEMPO 3114/3118 4000 RA BKN008



MetMap, La meteo Aeronautica in un colpo d'occhio ! - Copyright ORBIFLY Dicembre 2007 - Disclaimer

ORBIFLY MET'MAP TEAM :

Programmazione e sviluppo : Alexandra Zaïnal
Concezione : Baudouin d'Aumeries
Aiuto per la programmazione : Marc-Olivier Méhu
Supporto tecnico e logistico : Manuel Goepfert
Aiuto per la traduzione : Arnaldo La Scala

Contatto : metmap@orbifly.com




FONTI E CREDITI :

   NOAA